Time;durP1;ratioP1;P1;durP2;ratioP2;P2;SDS_P1;SDS_P2;PMS_P1;PMS_P2;Temp;Humidity;BMP_temperature;BMP_pressure;BME280_temperature;BME280_humidity;BME280_pressure;Samples;Min_cycle;Max_cycle;Signal;HPM_P1;HPM_P2
2023/07/26 00:02:09;;;;;;;6.85;4.22;;;;;;;17.45;100.00;99782.06;5089705;28;20027;-58
2023/07/26 00:04:34;;;;;;;8.27;4.03;;;;;;;17.43;100.00;99785.78;5086498;28;20099;-58
2023/07/26 00:07:00;;;;;;;7.57;4.28;;;;;;;17.42;100.00;99790.28;5085642;28;20146;-58
2023/07/26 00:09:25;;;;;;;7.53;4.65;;;;;;;17.44;100.00;99784.81;5090153;28;20031;-58
2023/07/26 00:11:50;;;;;;;7.53;4.47;;;;;;;17.44;100.00;99793.75;5088881;28;20028;-57
2023/07/26 00:14:16;;;;;;;6.95;3.88;;;;;;;17.41;100.00;99785.88;5090314;28;20425;-58
2023/07/26 00:16:41;;;;;;;7.15;4.25;;;;;;;17.39;100.00;99790.50;5089259;28;20039;-58
2023/07/26 00:19:07;;;;;;;8.63;4.60;;;;;;;17.41;100.00;99788.56;5089034;28;20027;-59
2023/07/26 00:21:32;;;;;;;8.20;4.40;;;;;;;17.41;100.00;99783.19;5088621;28;20027;-58
2023/07/26 00:23:58;;;;;;;8.55;4.80;;;;;;;17.49;100.00;99791.66;5088827;28;20024;-58
2023/07/26 00:26:25;;;;;;;8.77;5.80;;;;;;;17.49;100.00;99790.78;5087951;28;20039;-58
2023/07/26 00:28:50;;;;;;;9.63;5.47;;;;;;;17.50;100.00;99787.13;5088523;28;20019;-58
2023/07/26 00:31:16;;;;;;;6.88;4.70;;;;;;;17.42;100.00;99790.28;5080568;28;20042;-58
2023/07/26 00:33:41;;;;;;;8.15;4.68;;;;;;;17.30;100.00;99780.31;5067634;28;20060;-58
2023/07/26 00:36:08;;;;;;;8.45;4.35;;;;;;;17.32;100.00;99793.66;5076176;28;20103;-58
2023/07/26 00:38:33;;;;;;;7.18;4.57;;;;;;;17.31;100.00;99792.81;5088100;28;20031;-57
2023/07/26 00:40:59;;;;;;;7.13;4.60;;;;;;;17.28;100.00;99792.97;5087432;28;20032;-58
2023/07/26 00:43:25;;;;;;;9.45;5.32;;;;;;;17.28;100.00;99792.97;5087355;28;20496;-58
2023/07/26 00:45:50;;;;;;;8.23;4.53;;;;;;;17.30;100.00;99791.06;5086539;28;20679;-59
2023/07/26 00:48:16;;;;;;;8.80;4.40;;;;;;;17.32;100.00;99791.84;5066825;28;20451;-58
2023/07/26 00:50:45;;;;;;;8.88;5.03;;;;;;;17.34;100.00;99797.13;5070386;28;20070;-58
2023/07/26 00:53:11;;;;;;;10.00;5.85;;;;;;;17.33;100.00;99790.88;5086062;28;20032;-58
2023/07/26 00:55:37;;;;;;;10.43;4.85;;;;;;;17.32;100.00;99794.53;5087238;28;20035;-59
2023/07/26 00:58:03;;;;;;;9.45;5.00;;;;;;;17.25;100.00;99793.19;5088027;28;20028;-58
2023/07/26 01:00:41;;;;;;;9.90;6.07;;;;;;;17.25;100.00;99805.78;5085229;28;20092;-58
2023/07/26 01:03:06;;;;;;;10.48;5.40;;;;;;;17.22;100.00;99792.50;5070013;28;20030;-57
2023/07/26 01:05:39;;;;;;;9.55;5.40;;;;;;;17.20;100.00;99797.97;5088341;28;20380;-58
2023/07/26 01:08:17;;;;;;;10.80;5.33;;;;;;;17.16;100.00;99800.97;5088928;28;20062;-58
2023/07/26 01:10:55;;;;;;;11.05;5.68;;;;;;;17.16;100.00;99799.16;5088735;28;20024;-58
2023/07/26 01:13:33;;;;;;;7.53;4.40;;;;;;;17.09;100.00;99797.78;5088518;28;20031;-58
2023/07/26 01:15:59;;;;;;;10.25;4.65;;;;;;;17.05;100.00;99796.25;5087306;28;20088;-58
2023/07/26 01:18:25;;;;;;;10.52;4.82;;;;;;;17.00;100.00;99803.75;5087815;28;20511;-58
2023/07/26 01:20:50;;;;;;;7.65;4.70;;;;;;;16.97;100.00;99801.22;5087640;28;20019;-58
2023/07/26 01:23:16;;;;;;;14.52;5.43;;;;;;;16.93;100.00;99805.09;5086946;28;20036;-58
2023/07/26 01:25:41;;;;;;;9.88;5.20;;;;;;;16.91;100.00;99809.69;5087580;28;20417;-58
2023/07/26 01:28:07;;;;;;;9.00;5.15;;;;;;;16.90;100.00;99813.34;5086666;28;20364;-58
2023/07/26 01:30:33;;;;;;;9.23;5.43;;;;;;;16.86;100.00;99818.03;5087447;28;20031;-59
2023/07/26 01:33:05;;;;;;;7.40;4.82;;;;;;;16.89;100.00;99816.97;5086501;28;20029;-58
2023/07/26 01:35:31;;;;;;;8.90;5.57;;;;;;;16.87;100.00;99816.19;5086580;28;20097;-58
2023/07/26 01:37:57;;;;;;;6.82;5.13;;;;;;;16.86;100.00;99811.78;5087542;28;20616;-58
2023/07/26 01:40:23;;;;;;;10.60;5.70;;;;;;;16.91;100.00;99809.69;5086840;28;20055;-58
2023/07/26 01:42:49;;;;;;;9.98;5.40;;;;;;;16.83;100.00;99798.56;5087653;28;20030;-59
2023/07/26 01:45:15;;;;;;;9.57;6.05;;;;;;;16.84;100.00;99809.19;5082998;28;20331;-58
2023/07/26 01:47:40;;;;;;;7.38;5.30;;;;;;;16.89;100.00;99815.16;5088358;28;20043;-58
2023/07/26 01:50:07;;;;;;;10.70;6.32;;;;;;;16.86;100.00;99817.16;5088762;28;20038;-58
2023/07/26 01:52:33;;;;;;;8.32;5.45;;;;;;;16.81;100.00;99821.94;5087542;28;20039;-57
2023/07/26 01:54:59;;;;;;;8.88;5.70;;;;;;;16.77;100.00;99817.75;5087582;28;20024;-58
2023/07/26 01:57:25;;;;;;;9.52;6.15;;;;;;;16.75;100.00;99819.66;5070766;28;20709;-57
2023/07/26 01:59:53;;;;;;;8.70;5.55;;;;;;;16.64;100.00;99814.03;5072949;28;20127;-58
2023/07/26 02:02:19;;;;;;;9.30;5.32;;;;;;;16.58;100.00;99807.25;5088285;28;20445;-58
2023/07/26 02:04:45;;;;;;;8.25;5.18;;;;;;;16.61;100.00;99823.16;5083431;28;20028;-59
2023/07/26 02:07:11;;;;;;;9.75;6.15;;;;;;;16.60;100.00;99825.94;5086491;28;20056;-58
2023/07/26 02:09:37;;;;;;;7.68;4.75;;;;;;;16.58;100.00;99830.53;5087605;28;20105;-57
2023/07/26 02:12:03;;;;;;;10.10;5.93;;;;;;;16.56;100.00;99824.38;5087445;28;20028;-58
2023/07/26 02:14:28;;;;;;;10.65;6.28;;;;;;;16.48;100.00;99826.66;5085873;28;20078;-58
2023/07/26 02:16:53;;;;;;;8.80;5.25;;;;;;;16.42;100.00;99827.00;5087029;28;20024;-58
2023/07/26 02:19:19;;;;;;;8.10;5.50;;;;;;;16.39;100.00;99828.03;5087226;28;20476;-57
2023/07/26 02:21:44;;;;;;;8.63;4.70;;;;;;;16.39;100.00;99832.56;5085459;28;20157;-58
2023/07/26 02:24:10;;;;;;;11.13;6.22;;;;;;;16.36;100.00;99838.13;5086337;28;20033;-58
2023/07/26 02:26:35;;;;;;;13.82;6.25;;;;;;;16.35;100.00;99841.75;5086010;28;20031;-58
2023/07/26 02:29:01;;;;;;;9.55;5.50;;;;;;;16.36;100.00;99838.13;5087238;28;20446;-58
2023/07/26 02:31:26;;;;;;;8.60;6.00;;;;;;;16.35;100.00;99841.75;5086733;28;20463;-58
2023/07/26 02:33:51;;;;;;;11.57;5.65;;;;;;;16.36;100.00;99832.75;5085838;28;20114;-58
2023/07/26 02:36:17;;;;;;;12.10;5.50;;;;;;;16.37;100.00;99837.16;5086708;28;20028;-57
2023/07/26 02:38:42;;;;;;;8.85;5.85;;;;;;;16.36;100.00;99830.06;5086582;28;20089;-58
2023/07/26 02:41:08;;;;;;;13.75;5.78;;;;;;;16.34;100.00;99835.50;5086931;28;20077;-57
2023/07/26 02:43:33;;;;;;;11.15;5.72;;;;;;;16.30;100.00;99835.78;5087524;28;20035;-57
2023/07/26 02:45:58;;;;;;;9.77;5.88;;;;;;;16.30;100.00;99838.47;5086377;28;20097;-57
2023/07/26 02:48:24;;;;;;;10.15;6.35;;;;;;;16.33;100.00;99849.00;5087088;28;20091;-58
2023/07/26 02:50:49;;;;;;;8.68;6.03;;;;;;;16.29;100.00;99844.78;5085968;28;20028;-57
2023/07/26 02:53:15;;;;;;;10.07;6.45;;;;;;;16.33;100.00;99843.63;5086913;28;20036;-57
2023/07/26 02:55:44;;;;;;;10.45;5.93;;;;;;;16.34;100.00;99848.06;5086638;28;20127;-57
2023/07/26 02:58:10;;;;;;;8.70;6.15;;;;;;;16.37;100.00;99842.53;5087142;28;20054;-57
2023/07/26 03:00:35;;;;;;;10.93;6.10;;;;;;;16.38;100.00;99852.28;5086123;28;20024;-57
2023/07/26 03:03:01;;;;;;;9.30;5.53;;;;;;;16.36;100.00;99855.06;5087061;28;20051;-57
2023/07/26 03:05:27;;;;;;;11.80;6.25;;;;;;;16.38;100.00;99854.97;5085536;28;20028;-58
2023/07/26 03:07:53;;;;;;;10.82;5.60;;;;;;;16.41;100.00;99855.66;5086603;28;20551;-58
2023/07/26 03:10:18;;;;;;;9.30;5.57;;;;;;;16.38;100.00;99863.91;5085142;28;20107;-56
2023/07/26 03:12:44;;;;;;;8.23;5.65;;;;;;;16.35;100.00;99861.41;5086563;28;20028;-57
2023/07/26 03:15:09;;;;;;;10.50;5.53;;;;;;;16.35;100.00;99865.91;5086891;28;20483;-58
2023/07/26 03:17:35;;;;;;;10.63;5.13;;;;;;;16.36;100.00;99870.34;5089552;28;20142;-58
2023/07/26 03:20:00;;;;;;;10.25;5.47;;;;;;;16.39;100.00;99870.16;5089610;28;20024;-58
2023/07/26 03:22:26;;;;;;;8.07;4.82;;;;;;;16.38;100.00;99871.09;5089609;28;20027;-59
2023/07/26 03:24:51;;;;;;;7.45;4.55;;;;;;;16.33;100.00;99870.47;5090381;28;20524;-57
2023/07/26 03:27:16;;;;;;;8.30;4.65;;;;;;;16.29;100.00;99871.63;5088763;28;20133;-58
2023/07/26 03:29:42;;;;;;;8.68;4.75;;;;;;;16.29;100.00;99868.94;5090007;28;20032;-58
2023/07/26 03:32:08;;;;;;;12.70;5.10;;;;;;;16.29;100.00;99868.94;5089861;28;20016;-57
2023/07/26 03:34:33;;;;;;;19.77;4.90;;;;;;;16.28;100.00;99873.44;5089348;28;20028;-58
2023/07/26 03:36:58;;;;;;;8.25;5.00;;;;;;;16.28;100.00;99877.94;5084823;28;20314;-58
2023/07/26 03:39:24;;;;;;;9.32;5.00;;;;;;;16.25;100.00;99878.13;5084886;28;20027;-58
2023/07/26 03:41:49;;;;;;;9.15;4.40;;;;;;;16.25;100.00;99875.44;5087352;28;20043;-58
2023/07/26 03:44:15;;;;;;;8.70;5.30;;;;;;;16.30;100.00;99878.72;5079438;28;20108;-57
2023/07/26 03:46:40;;;;;;;7.97;5.10;;;;;;;16.29;100.00;99883.22;5069614;28;20028;-58
2023/07/26 03:49:06;;;;;;;9.70;4.97;;;;;;;16.31;100.00;99886.69;5074273;28;20035;-58
2023/07/26 03:51:31;;;;;;;10.18;5.18;;;;;;;16.32;100.00;99884.88;5090228;28;20516;-57
2023/07/26 03:53:56;;;;;;;10.85;5.00;;;;;;;16.32;100.00;99880.38;5090543;28;20471;-57
2023/07/26 03:56:22;;;;;;;9.82;5.25;;;;;;;16.33;100.00;99886.59;5089725;28;20039;-58
2023/07/26 03:58:48;;;;;;;8.52;5.05;;;;;;;16.34;100.00;99882.97;5090547;28;20024;-58
2023/07/26 04:01:13;;;;;;;9.13;5.32;;;;;;;16.33;100.00;99886.59;5085340;28;20085;-59
2023/07/26 04:03:39;;;;;;;10.15;5.25;;;;;;;16.33;100.00;99882.09;5090161;28;20016;-58
2023/07/26 04:06:05;;;;;;;9.25;4.60;;;;;;;16.29;100.00;99877.84;5084486;28;20138;-58
2023/07/26 04:08:30;;;;;;;8.98;5.15;;;;;;;16.29;100.00;99888.59;5086618;28;20055;-58
2023/07/26 04:10:55;;;;;;;10.27;6.18;;;;;;;16.21;100.00;99877.44;5074262;28;20036;-57
2023/07/26 04:13:21;;;;;;;8.77;5.82;;;;;;;16.32;100.00;99887.56;5068319;28;20678;-57
2023/07/26 04:15:47;;;;;;;8.50;5.82;;;;;;;16.34;100.00;99882.97;5066582;28;20020;-58
2023/07/26 04:18:12;;;;;;;9.65;4.90;;;;;;;16.31;100.00;99884.00;5067937;28;20036;-58
2023/07/26 04:20:38;;;;;;;8.38;4.95;;;;;;;16.34;100.00;99888.34;5069982;28;20028;-57
2023/07/26 04:23:03;;;;;;;7.57;5.13;;;;;;;16.29;100.00;99880.53;5069139;28;20060;-58
2023/07/26 04:25:29;;;;;;;9.43;5.28;;;;;;;16.32;100.00;99884.88;5067049;28;20038;-58
2023/07/26 04:27:54;;;;;;;9.35;5.70;;;;;;;16.37;100.00;99893.53;5067700;28;20035;-57
2023/07/26 04:30:20;;;;;;;8.52;5.32;;;;;;;16.41;100.00;99890.56;5066625;28;20108;-58
2023/07/26 04:32:45;;;;;;;11.55;6.00;;;;;;;16.47;100.00;99889.38;5077834;28;20810;-58
2023/07/26 04:35:10;;;;;;;7.82;5.47;;;;;;;16.46;100.00;99882.25;5066963;28;20028;-57
2023/07/26 04:37:36;;;;;;;9.63;5.22;;;;;;;16.49;100.00;99888.31;5076692;28;20032;-57
2023/07/26 04:40:02;;;;;;;13.07;5.18;;;;;;;16.52;100.00;99887.31;5081005;28;20060;-58
2023/07/26 04:42:27;;;;;;;8.52;5.43;;;;;;;16.55;100.00;99893.34;5068131;28;20025;-58
2023/07/26 04:44:52;;;;;;;8.82;5.10;;;;;;;16.52;100.00;99892.66;5067590;28;20349;-58
2023/07/26 04:47:22;;;;;;;8.82;5.53;;;;;;;16.50;100.00;99900.81;5067486;28;20036;-57
2023/07/26 04:49:47;;;;;;;9.95;5.43;;;;;;;16.49;100.00;99900.91;5067910;28;20032;-57
2023/07/26 04:52:13;;;;;;;8.55;5.68;;;;;;;16.51;100.00;99902.53;5064630;28;20098;-57
2023/07/26 04:54:38;;;;;;;9.70;6.18;;;;;;;16.51;100.00;99907.91;5066868;28;20024;-58
2023/07/26 04:57:04;;;;;;;11.73;6.30;;;;;;;16.56;100.00;99910.31;5068170;28;20162;-57
2023/07/26 04:59:29;;;;;;;10.45;5.65;;;;;;;16.59;100.00;99919.06;5068673;28;20748;-58
2023/07/26 05:01:55;;;;;;;9.15;4.95;;;;;;;16.53;100.00;99915.88;5066891;28;20475;-57
2023/07/26 05:04:20;;;;;;;12.45;5.72;;;;;;;16.51;100.00;99912.41;5067477;28;20368;-58
2023/07/26 05:06:45;;;;;;;7.75;4.85;;;;;;;16.59;100.00;99926.28;5076432;28;20044;-58
2023/07/26 05:09:11;;;;;;;7.65;5.10;;;;;;;16.60;100.00;99925.31;5085825;28;20450;-57
2023/07/26 05:11:36;;;;;;;8.88;4.95;;;;;;;16.63;100.00;99934.06;5085510;28;20533;-57
2023/07/26 05:14:02;;;;;;;8.73;5.72;;;;;;;16.67;100.00;99935.59;5083134;28;20423;-58
2023/07/26 05:16:27;;;;;;;7.95;4.88;;;;;;;16.67;100.00;99946.34;5083761;28;20024;-57
2023/07/26 05:18:57;;;;;;;9.05;5.07;;;;;;;16.69;100.00;99938.19;5083564;28;20040;-57
2023/07/26 05:21:22;;;;;;;7.82;4.90;;;;;;;16.67;100.00;99945.50;5084388;28;20491;-57
2023/07/26 05:23:47;;;;;;;8.18;5.07;;;;;;;16.69;100.00;99940.88;5084604;28;20019;-58
2023/07/26 05:26:13;;;;;;;8.30;5.22;;;;;;;16.72;100.00;99941.56;5084477;28;20376;-57
2023/07/26 05:28:38;;;;;;;8.82;5.50;;;;;;;16.72;100.00;99940.72;5083635;28;20501;-57
2023/07/26 05:31:04;;;;;;;8.20;4.75;;;;;;;16.69;100.00;99943.56;5088079;28;20039;-57
2023/07/26 05:33:29;;;;;;;8.10;5.03;;;;;;;16.60;100.00;99933.38;5088414;28;20023;-58
2023/07/26 05:35:54;;;;;;;7.88;4.90;;;;;;;16.67;100.00;99948.19;5087349;28;20741;-58
2023/07/26 05:38:20;;;;;;;7.75;4.97;;;;;;;16.66;100.00;99930.31;5087647;28;20472;-58
2023/07/26 05:40:46;;;;;;;6.78;4.35;;;;;;;16.66;100.00;99943.72;5087392;28;20072;-58
2023/07/26 05:43:12;;;;;;;11.57;4.80;;;;;;;16.64;100.00;99940.28;5087294;28;20157;-57
2023/07/26 05:45:40;;;;;;;8.88;4.22;;;;;;;16.64;100.00;99941.16;5082605;28;20409;-59
2023/07/26 05:48:06;;;;;;;12.38;4.72;;;;;;;16.68;100.00;99947.22;5085819;28;20057;-58
2023/07/26 05:50:31;;;;;;;7.65;4.70;;;;;;;16.69;100.00;99947.13;5086694;28;20119;-57
2023/07/26 05:52:57;;;;;;;8.30;4.13;;;;;;;16.71;100.00;99952.38;5084026;28;20029;-58
2023/07/26 05:55:22;;;;;;;11.63;4.95;;;;;;;16.73;100.00;99950.50;5085751;28;20107;-57
2023/07/26 05:57:47;;;;;;;8.13;4.72;;;;;;;16.71;100.00;99955.06;5075461;28;20505;-58
2023/07/26 06:00:13;;;;;;;7.95;5.00;;;;;;;16.74;100.00;99957.56;5070527;28;20131;-58
2023/07/26 06:02:39;;;;;;;6.55;4.30;;;;;;;16.73;100.00;99950.50;5083993;28;20029;-57
2023/07/26 06:05:05;;;;;;;8.45;4.18;;;;;;;16.73;100.00;99950.50;5081046;28;20766;-58
2023/07/26 06:07:31;;;;;;;6.78;4.30;;;;;;;16.70;100.00;99946.19;5066316;28;20428;-59
2023/07/26 06:09:56;;;;;;;7.60;4.25;;;;;;;16.75;100.00;99953.97;5075024;28;20124;-59
2023/07/26 06:12:22;;;;;;;7.32;4.70;;;;;;;16.79;100.00;99958.19;5063735;28;20131;-57
2023/07/26 06:14:47;;;;;;;7.78;4.07;;;;;;;16.75;100.00;99959.34;5077872;28;20028;-58
2023/07/26 06:17:13;;;;;;;16.23;4.75;;;;;;;16.70;100.00;99954.25;5075371;28;20038;-58
2023/07/26 06:19:38;;;;;;;8.60;4.30;;;;;;;16.74;100.00;99958.44;5085482;28;20101;-57
2023/07/26 06:22:05;;;;;;;7.68;4.38;;;;;;;16.78;100.00;99961.84;5085320;28;20036;-58
2023/07/26 06:24:30;;;;;;;8.63;4.10;;;;;;;16.79;100.00;99960.88;5087271;28;20101;-57
2023/07/26 06:26:55;;;;;;;9.30;4.80;;;;;;;16.80;100.00;99958.09;5087823;28;20035;-57
2023/07/26 06:29:21;;;;;;;9.50;4.28;;;;;;;16.81;100.00;99961.66;5087361;28;20028;-57
2023/07/26 06:31:50;;;;;;;9.18;4.28;;;;;;;16.79;100.00;99967.13;5085144;28;20047;-57
2023/07/26 06:34:15;;;;;;;8.95;4.43;;;;;;;16.81;100.00;99975.06;5067461;28;20034;-58
2023/07/26 06:36:41;;;;;;;5.80;4.00;;;;;;;16.75;100.00;99965.53;5077459;28;20117;-58
2023/07/26 06:39:06;;;;;;;7.43;4.13;;;;;;;16.79;100.00;99966.22;5086198;28;20223;-58
2023/07/26 06:41:32;;;;;;;6.68;4.60;;;;;;;16.82;100.00;99976.78;5077763;28;20064;-58
2023/07/26 06:43:57;;;;;;;7.80;4.45;;;;;;;16.82;100.00;99968.75;5086574;28;20436;-58
2023/07/26 06:46:23;;;;;;;8.63;4.70;;;;;;;16.91;100.00;99976.28;5075864;28;20032;-58
2023/07/26 06:48:48;;;;;;;7.45;4.80;;;;;;;16.97;100.00;99970.53;5066957;28;20107;-58
2023/07/26 06:51:14;;;;;;;8.10;4.50;;;;;;;16.98;100.00;99974.97;5072499;28;20034;-58
2023/07/26 06:53:39;;;;;;;6.38;3.97;;;;;;;16.96;100.00;99958.06;5089885;28;20035;-57
2023/07/26 06:56:05;;;;;;;6.97;4.03;;;;;;;17.02;100.00;99973.81;5090083;28;20024;-57
2023/07/26 06:58:30;;;;;;;6.65;4.28;;;;;;;17.13;100.00;99970.50;5090053;28;20016;-58
2023/07/26 07:00:55;;;;;;;9.45;5.43;;;;;;;17.31;100.00;99972.06;5089017;28;20028;-57
2023/07/26 07:03:21;;;;;;;7.47;4.50;;;;;;;17.35;100.00;99965.56;5088573;28;20039;-58
2023/07/26 07:05:47;;;;;;;7.55;3.95;;;;;;;17.52;100.00;99968.97;5088495;28;20625;-57
2023/07/26 07:08:13;;;;;;;7.80;4.38;;;;;;;17.56;100.00;99970.50;5088377;28;20042;-57
2023/07/26 07:10:38;;;;;;;6.70;4.47;;;;;;;17.61;100.00;99968.38;5088862;28;20090;-58
2023/07/26 07:13:04;;;;;;;6.55;4.13;;;;;;;17.59;100.00;99969.47;5089944;28;20032;-59
2023/07/26 07:15:29;;;;;;;7.35;4.63;;;;;;;17.58;100.00;99973.09;5088929;28;20031;-57
2023/07/26 07:17:55;;;;;;;8.07;4.45;;;;;;;17.51;100.00;99977.97;5089462;28;20039;-58
2023/07/26 07:20:20;;;;;;;8.18;4.30;;;;;;;17.44;100.00;99982.00;5086474;28;20028;-58
2023/07/26 07:22:46;;;;;;;6.38;4.15;;;;;;;17.30;100.00;99981.94;5088430;28;20039;-57
2023/07/26 07:25:11;;;;;;;8.05;4.10;;;;;;;17.22;100.00;99976.16;5089486;28;20471;-57
2023/07/26 07:27:37;;;;;;;6.82;3.80;;;;;;;17.14;100.00;99978.47;5090670;28;20043;-57
2023/07/26 07:30:03;;;;;;;7.82;4.55;;;;;;;17.13;100.00;99982.13;5090546;28;20456;-58
2023/07/26 07:32:28;;;;;;;8.02;4.20;;;;;;;16.99;100.00;99976.69;5090947;28;20105;-57
2023/07/26 07:34:54;;;;;;;6.13;3.40;;;;;;;16.87;100.00;99978.28;5089736;28;20039;-57
2023/07/26 07:37:20;;;;;;;7.63;4.63;;;;;;;17.08;100.00;99974.31;5089723;28;20407;-57
2023/07/26 07:39:45;;;;;;;6.93;4.32;;;;;;;17.35;100.00;99981.69;5089570;28;20065;-57
2023/07/26 07:42:11;;;;;;;9.80;4.70;;;;;;;17.56;100.00;99992.00;5090494;28;20032;-57
2023/07/26 07:44:36;;;;;;;10.15;4.35;;;;;;;17.70;100.00;99983.97;5083183;28;20027;-57
2023/07/26 07:47:02;;;;;;;8.43;4.30;;;;;;;17.90;100.00;99986.28;5088464;28;20403;-57
2023/07/26 07:49:28;;;;;;;7.32;4.55;;;;;;;18.47;100.00;99986.25;5079804;28;20062;-58
2023/07/26 07:51:53;;;;;;;9.80;4.75;;;;;;;18.78;100.00;99996.75;5076673;28;20103;-57
2023/07/26 07:54:19;;;;;;;6.50;4.18;;;;;;;18.99;100.00;99995.31;5088552;28;20027;-58
2023/07/26 07:56:45;;;;;;;7.65;4.75;;;;;;;19.08;100.00;99998.25;5088143;28;20028;-58
2023/07/26 07:59:11;;;;;;;6.22;4.15;;;;;;;19.21;100.00;99995.56;5088603;28;20028;-57
2023/07/26 08:01:37;;;;;;;6.43;3.55;;;;;;;19.32;98.01;99993.88;5085697;28;20028;-58
2023/07/26 08:04:02;;;;;;;6.30;4.50;;;;;;;19.52;97.71;99996.09;5087640;28;20036;-58
2023/07/26 08:06:29;;;;;;;9.32;5.18;;;;;;;19.54;97.04;99999.53;5086082;28;20068;-58
2023/07/26 08:08:55;;;;;;;21.83;11.77;;;;;;;19.51;96.59;100004.28;5085933;28;20039;-59
2023/07/26 08:11:21;;;;;;;22.85;11.65;;;;;;;19.59;97.66;99994.69;5071491;28;20430;-58
2023/07/26 08:13:47;;;;;;;46.33;24.42;;;;;;;19.59;96.68;100001.91;5067545;28;20142;-57
2023/07/26 08:16:13;;;;;;;14.40;8.77;;;;;;;19.41;94.63;100009.47;5072974;28;20040;-58
2023/07/26 08:18:38;;;;;;;9.65;4.78;;;;;;;19.28;94.86;100002.28;5069033;28;20035;-57
2023/07/26 08:21:05;;;;;;;7.90;4.65;;;;;;;19.16;94.73;100009.38;5071578;28;20024;-57
2023/07/26 08:23:30;;;;;;;10.63;4.63;;;;;;;19.13;95.75;100003.31;5087875;28;20019;-58
2023/07/26 08:26:01;;;;;;;6.90;4.13;;;;;;;19.18;96.03;100010.13;5085925;28;20035;-57
2023/07/26 08:28:27;;;;;;;10.40;4.63;;;;;;;19.27;96.81;100005.94;5089373;28;20594;-59
2023/07/26 08:30:52;;;;;;;8.55;4.43;;;;;;;19.56;98.26;100004.84;5089666;28;20114;-58
2023/07/26 08:33:17;;;;;;;8.77;5.53;;;;;;;20.39;98.79;99991.66;5088710;28;20028;-57
2023/07/26 08:35:43;;;;;;;6.85;4.75;;;;;;;20.77;93.27;100000.47;5089193;28;20106;-58
2023/07/26 08:38:08;;;;;;;13.75;9.80;;;;;;;20.69;89.53;99992.06;5089418;28;20060;-58
2023/07/26 08:40:34;;;;;;;7.68;5.45;;;;;;;20.52;88.98;99994.31;5088481;28;20024;-58
2023/07/26 08:43:04;;;;;;;7.13;4.90;;;;;;;20.24;89.24;99997.28;5088344;28;20040;-57
2023/07/26 08:45:30;;;;;;;5.20;2.78;;;;;;;20.05;89.02;100008.50;5088278;28;20035;-57
2023/07/26 08:47:57;;;;;;;9.13;3.40;;;;;;;19.86;90.48;99997.28;5086247;28;20032;-58
2023/07/26 08:50:23;;;;;;;7.03;3.20;;;;;;;19.61;90.40;99992.75;5087739;28;20532;-57
2023/07/26 08:52:48;;;;;;;7.00;3.78;;;;;;;19.52;91.25;100006.03;5085631;28;20032;-57
2023/07/26 08:55:15;;;;;;;6.18;3.50;;;;;;;19.48;92.79;100010.78;5087077;28;20016;-57
2023/07/26 08:57:42;;;;;;;7.25;3.67;;;;;;;19.33;92.80;100016.34;5086581;28;20622;-57
2023/07/26 09:00:11;;;;;;;5.18;3.00;;;;;;;19.23;93.72;100012.50;5086395;28;20024;-58
2023/07/26 09:02:40;;;;;;;4.80;2.72;;;;;;;19.30;93.48;100011.16;5087072;28;20038;-58
2023/07/26 09:05:06;;;;;;;6.78;3.20;;;;;;;19.38;91.73;100008.81;5087840;28;20028;-57
2023/07/26 09:07:31;;;;;;;6.60;3.15;;;;;;;19.36;90.82;100011.59;5086972;28;20059;-58
2023/07/26 09:09:57;;;;;;;4.10;2.85;;;;;;;19.60;93.00;100001.81;5087127;28;20020;-58
2023/07/26 09:12:27;;;;;;;8.20;2.88;;;;;;;19.96;92.09;99990.28;5088555;28;20415;-57
2023/07/26 09:14:54;;;;;;;5.30;3.72;;;;;;;20.68;87.49;99998.47;5085075;28;20758;-58
2023/07/26 09:17:19;;;;;;;6.60;3.67;;;;;;;21.70;83.91;99991.50;5086087;28;20028;-57
2023/07/26 09:19:45;;;;;;;4.18;2.40;;;;;;;22.60;77.08;100000.44;5072134;28;20592;-56
2023/07/26 09:22:10;;;;;;;4.82;2.33;;;;;;;23.12;73.39;99992.41;5076908;28;20046;-58
2023/07/26 09:24:39;;;;;;;4.57;2.30;;;;;;;23.71;72.49;99989.16;5084302;28;20028;-57
2023/07/26 09:27:11;;;;;;;2.90;1.80;;;;;;;24.22;65.54;99985.47;5084031;28;20111;-57
2023/07/26 09:29:41;;;;;;;3.30;2.20;;;;;;;24.39;65.06;99992.13;5065792;28;20177;-58
2023/07/26 09:32:07;;;;;;;3.65;2.17;;;;;;;25.02;63.23;99999.91;5068375;28;20031;-59
2023/07/26 09:34:33;;;;;;;3.17;2.03;;;;;;;25.21;61.98;99997.19;5076258;28;20050;-58
2023/07/26 09:36:59;;;;;;;2.35;1.45;;;;;;;25.06;61.64;100004.06;5083353;28;20023;-57
2023/07/26 09:39:27;;;;;;;2.70;1.67;;;;;;;24.71;61.91;100003.72;5079709;28;20034;-58
2023/07/26 09:42:04;;;;;;;2.90;1.90;;;;;;;24.23;62.67;100005.38;5082877;28;20103;-58
2023/07/26 09:44:30;;;;;;;3.17;1.80;;;;;;;24.31;63.63;100016.44;5074505;28;20097;-57
2023/07/26 09:46:57;;;;;;;3.05;1.50;;;;;;;24.00;64.79;100017.44;5070356;28;20032;-57
2023/07/26 09:49:26;;;;;;;4.03;1.70;;;;;;;22.94;64.50;100015.66;5078362;28;20029;-58
2023/07/26 09:51:57;;;;;;;2.63;1.55;;;;;;;22.97;67.78;100015.41;5068541;28;20032;-57
2023/07/26 09:54:28;;;;;;;2.30;1.67;;;;;;;23.15;66.38;100008.44;5069997;28;20090;-57
2023/07/26 09:56:57;;;;;;;2.00;1.35;;;;;;;23.22;67.86;100019.63;5081916;28;20089;-58
2023/07/26 09:59:25;;;;;;;3.55;1.80;;;;;;;23.20;66.25;100006.19;5082220;28;20736;-57
2023/07/26 10:01:52;;;;;;;3.22;1.67;;;;;;;23.09;66.24;100008.97;5081903;28;20110;-57
2023/07/26 10:04:58;;;;;;;4.22;1.70;;;;;;;23.04;62.75;100007.63;5082261;28;20101;-57
2023/07/26 10:07:26;;;;;;;2.22;1.40;;;;;;;22.81;65.50;100014.97;5081236;28;20044;-57
2023/07/26 10:09:53;;;;;;;4.20;1.83;;;;;;;23.43;65.84;100002.41;5051269;28;20055;-58
2023/07/26 10:12:22;;;;;;;7.53;3.70;;;;;;;24.25;63.57;100006.94;5076613;28;20056;-58
2023/07/26 10:14:49;;;;;;;5.53;2.08;;;;;;;24.53;60.05;99999.91;5084964;28;20020;-57
2023/07/26 10:17:17;;;;;;;5.25;2.03;;;;;;;24.54;60.08;100001.63;5079258;28;20036;-59
2023/07/26 10:19:43;;;;;;;3.00;1.50;;;;;;;24.71;59.82;99997.41;5066935;28;20043;-58
2023/07/26 10:22:10;;;;;;;2.75;1.40;;;;;;;24.56;58.76;100005.09;5072707;28;20110;-58
2023/07/26 10:24:37;;;;;;;3.13;1.67;;;;;;;23.98;58.25;99994.94;5071737;28;20036;-57
2023/07/26 10:27:03;;;;;;;3.65;1.90;;;;;;;23.27;59.79;99999.31;5077751;28;20079;-58
2023/07/26 10:29:29;;;;;;;3.00;1.40;;;;;;;22.85;64.57;99989.28;5071024;28;20522;-57
2023/07/26 10:32:06;;;;;;;5.05;1.52;;;;;;;22.55;64.30;99996.41;5081907;28;20103;-57
2023/07/26 10:34:31;;;;;;;5.55;2.33;;;;;;;22.48;65.61;99990.59;5089098;28;20464;-57
2023/07/26 10:36:57;;;;;;;10.35;4.68;;;;;;;22.50;67.77;99990.47;5091230;28;20030;-57
2023/07/26 10:39:34;;;;;;;3.55;2.03;;;;;;;22.30;66.04;99986.66;5088674;28;20050;-57
2023/07/26 10:42:01;;;;;;;4.47;2.17;;;;;;;21.84;67.82;99989.50;5081436;28;20032;-57
2023/07/26 10:44:27;;;;;;;2.55;1.55;;;;;;;21.92;68.53;99994.28;5084513;28;20032;-57
2023/07/26 10:47:03;;;;;;;1.92;1.27;;;;;;;21.78;66.60;99994.50;5078373;28;20043;-58
2023/07/26 10:49:33;;;;;;;5.03;1.60;;;;;;;21.90;69.37;99993.53;5070916;28;20368;-58
2023/07/26 10:52:02;;;;;;;4.40;1.85;;;;;;;22.15;69.68;99998.75;5080549;28;20029;-57
2023/07/26 10:54:42;;;;;;;2.60;1.50;;;;;;;21.99;66.94;99990.13;5071448;28;20359;-58
2023/07/26 10:57:21;;;;;;;3.70;1.52;;;;;;;21.97;68.80;99994.78;5075339;28;20039;-59
2023/07/26 11:00:23;;;;;;;5.70;1.40;;;;;;;22.26;69.75;99990.59;5072614;28;20063;-59
2023/07/26 11:03:09;;;;;;;3.28;1.70;;;;;;;22.78;67.76;99993.53;5078301;28;20032;-58
2023/07/26 11:05:38;;;;;;;7.07;3.67;;;;;;;23.24;67.79;99983.22;5077878;28;20048;-59
2023/07/26 11:08:05;;;;;;;6.75;2.83;;;;;;;23.37;63.97;99974.94;5078015;28;20115;-59
2023/07/26 11:10:36;;;;;;;12.00;5.45;;;;;;;23.24;63.09;99979.66;5091174;28;20460;-60
2023/07/26 11:13:12;;;;;;;10.60;5.80;;;;;;;22.91;59.70;99987.94;5091088;28;20039;-60
2023/07/26 11:15:40;;;;;;;7.40;3.40;;;;;;;22.34;63.02;99980.00;5086822;28;20020;-59
2023/07/26 11:18:06;;;;;;;8.48;3.35;;;;;;;21.88;63.33;99990.09;5090411;28;20024;-59
2023/07/26 11:20:32;;;;;;;4.30;2.30;;;;;;;21.68;65.23;99991.63;5082535;28;20033;-59
2023/07/26 11:22:57;;;;;;;4.65;2.10;;;;;;;21.63;64.97;99996.53;5089091;28;20054;-60